createdAt,value
2023-01-11T00:00:03.421Z,338.12
2023-01-11T00:05:10.604Z,339.04
2023-01-11T00:10:17.805Z,339.40
2023-01-11T00:15:25.031Z,340.09
2023-01-11T00:20:32.211Z,340.31
2023-01-11T00:25:39.432Z,340.62
2023-01-11T00:30:46.667Z,340.16
2023-01-11T00:35:53.830Z,341.03
2023-01-11T00:41:01.068Z,341.76
2023-01-11T00:46:08.292Z,341.61
2023-01-11T00:51:15.385Z,341.78
2023-01-11T00:56:22.571Z,341.52
2023-01-11T01:01:29.841Z,340.88
2023-01-11T01:06:36.957Z,340.73
2023-01-11T01:11:44.180Z,340.68
2023-01-11T01:16:51.363Z,341.53
2023-01-11T01:21:58.593Z,341.01
2023-01-11T01:27:05.814Z,341.12
2023-01-11T01:32:12.925Z,340.97
2023-01-11T01:37:20.056Z,341.79
2023-01-11T01:42:27.288Z,341.99
2023-01-11T01:47:34.388Z,340.97
2023-01-11T01:52:41.583Z,341.65
2023-01-11T01:57:48.825Z,342.60
2023-01-11T02:02:56.193Z,343.36
2023-01-11T02:08:03.217Z,343.01
2023-01-11T02:13:10.500Z,343.32
2023-01-11T02:18:17.626Z,343.88
2023-01-11T02:23:24.857Z,344.40
2023-01-11T02:28:32.060Z,346.29
2023-01-11T02:33:39.368Z,346.20
2023-01-11T02:38:46.559Z,346.16
2023-01-11T02:43:53.780Z,346.42
2023-01-11T02:49:00.995Z,347.18
2023-01-11T02:54:08.169Z,348.04
2023-01-11T02:59:15.433Z,347.61
2023-01-11T03:04:22.576Z,348.84
2023-01-11T03:09:29.778Z,349.43
2023-01-11T03:14:37.051Z,350.37
2023-01-11T03:19:44.169Z,350.76
2023-01-11T03:24:51.378Z,351.65
2023-01-11T03:29:58.607Z,351.55
2023-01-11T03:35:05.787Z,351.27
2023-01-11T03:40:13.036Z,351.55
2023-01-11T03:45:20.298Z,352.63
2023-01-11T03:50:27.419Z,352.59
2023-01-11T03:55:34.570Z,352.92
2023-01-11T04:00:41.819Z,354.45
2023-01-11T04:05:48.931Z,353.27
2023-01-11T04:10:56.172Z,354.28
2023-01-11T04:16:03.409Z,355.25
2023-01-11T04:21:10.693Z,355.46
2023-01-11T04:26:17.958Z,355.15
2023-01-11T04:31:25.383Z,355.55
2023-01-11T04:36:32.446Z,356.68
2023-01-11T04:41:39.643Z,356.73
2023-01-11T04:46:46.799Z,356.70
2023-01-11T04:51:53.953Z,356.57
2023-01-11T04:57:01.178Z,357.59
2023-01-11T05:02:08.385Z,358.04
2023-01-11T05:07:15.522Z,358.32
2023-01-11T05:12:22.694Z,358.09
2023-01-11T05:17:29.953Z,357.84
2023-01-11T05:22:37.331Z,358.30
2023-01-11T05:27:44.512Z,357.39
2023-01-11T05:32:51.737Z,358.00
2023-01-11T05:37:58.912Z,359.24
2023-01-11T05:43:06.061Z,359.68
2023-01-11T05:48:13.260Z,359.23
2023-01-11T05:53:20.446Z,358.81
2023-01-11T05:58:27.810Z,358.97
2023-01-11T06:03:35.081Z,359.22
2023-01-11T06:08:42.283Z,359.70
2023-01-11T06:13:49.458Z,358.67
2023-01-11T06:18:56.756Z,360.84
2023-01-11T06:24:03.989Z,360.25
2023-01-11T06:29:11.178Z,359.20
2023-01-11T06:34:18.663Z,359.87
2023-01-11T06:39:25.845Z,360.19
2023-01-11T06:44:33.158Z,361.27
2023-01-11T06:49:40.345Z,360.58
2023-01-11T06:54:47.505Z,361.77
2023-01-11T06:59:54.740Z,362.41
2023-01-11T07:05:01.981Z,362.23
2023-01-11T07:10:09.139Z,362.17
2023-01-11T07:15:16.335Z,362.00
2023-01-11T07:20:23.546Z,360.99
2023-01-11T07:25:30.733Z,361.46
2023-01-11T07:30:55.431Z,360.74
2023-01-11T07:35:45.160Z,362.78
2023-01-11T07:40:52.337Z,363.23
2023-01-11T07:45:59.710Z,364.40
2023-01-11T07:51:06.805Z,364.27
2023-01-11T07:56:13.964Z,364.21
2023-01-11T08:01:21.176Z,364.79
2023-01-11T08:06:28.405Z,364.60
2023-01-11T08:11:35.616Z,364.93
2023-01-11T08:16:42.886Z,365.18
2023-01-11T08:21:50.115Z,364.92
2023-01-11T08:26:57.333Z,363.93
2023-01-11T08:32:04.464Z,363.15
2023-01-11T08:37:11.801Z,362.75
2023-01-11T08:42:18.921Z,363.81
2023-01-11T08:47:26.149Z,363.12
2023-01-11T08:52:33.363Z,362.33
2023-01-11T08:57:40.558Z,363.86
2023-01-11T09:02:47.719Z,363.21
2023-01-11T09:07:54.961Z,363.05
2023-01-11T09:13:02.187Z,362.69
2023-01-11T09:18:09.342Z,362.59
2023-01-11T09:23:16.662Z,362.75
2023-01-11T09:28:23.732Z,363.95
2023-01-11T09:33:30.964Z,364.17
2023-01-11T09:38:38.194Z,364.52
2023-01-11T09:43:45.384Z,363.52
2023-01-11T09:48:52.571Z,363.15
2023-01-11T09:53:59.834Z,364.93
2023-01-11T09:59:07.004Z,364.11
2023-01-11T10:04:14.167Z,364.58
2023-01-11T10:18:32.991Z,365.15
2023-01-11T10:19:40.382Z,364.95
2023-01-11T10:24:43.065Z,366.47
2023-01-11T10:29:50.221Z,365.36
2023-01-11T10:34:57.425Z,367.09
2023-01-11T10:40:04.652Z,367.73
2023-01-11T10:45:11.835Z,368.68
2023-01-11T10:50:19.009Z,368.87
2023-01-11T10:55:26.301Z,368.26
2023-01-11T11:00:33.587Z,368.67
2023-01-11T11:05:40.749Z,369.43
2023-01-11T11:10:47.997Z,369.85
2023-01-11T11:15:55.327Z,371.72
2023-01-11T11:21:02.361Z,370.88
2023-01-11T11:26:09.581Z,371.70
2023-01-11T11:31:22.755Z,371.65
2023-01-11T11:36:29.937Z,373.03
2023-01-11T11:41:37.159Z,374.83
2023-01-11T11:46:44.426Z,374.74
2023-01-11T11:51:51.651Z,374.12
2023-01-11T11:56:58.940Z,375.25
2023-01-11T12:02:06.190Z,373.86
2023-01-11T12:07:13.283Z,376.26
2023-01-11T12:12:20.480Z,377.02
2023-01-11T12:17:27.679Z,375.57
2023-01-11T12:22:34.854Z,374.08
2023-01-11T12:27:42.111Z,374.04
2023-01-11T12:32:49.290Z,374.06
2023-01-11T12:37:56.516Z,375.12
2023-01-11T12:43:03.929Z,375.05
2023-01-11T12:48:11.022Z,374.75
2023-01-11T12:53:18.214Z,373.64
2023-01-11T12:58:25.417Z,374.38
2023-01-11T13:03:32.587Z,374.38
2023-01-11T13:08:39.779Z,374.45
2023-01-11T13:13:47.038Z,374.09
2023-01-11T13:18:54.279Z,374.46
2023-01-11T13:24:01.545Z,373.81
2023-01-11T13:29:08.749Z,372.32
2023-01-11T13:34:15.959Z,371.61
2023-01-11T13:39:23.145Z,369.92
2023-01-11T13:44:30.392Z,370.10
2023-01-11T13:49:37.538Z,368.84
2023-01-11T13:54:44.765Z,369.14
2023-01-11T13:59:51.981Z,368.55
2023-01-11T14:04:59.163Z,368.17
2023-01-11T14:10:06.394Z,368.14
2023-01-11T14:15:13.571Z,366.82
2023-01-11T14:20:20.719Z,366.75
2023-01-11T14:25:27.887Z,366.12
2023-01-11T14:30:35.163Z,365.62
2023-01-11T14:35:42.359Z,365.64
2023-01-11T14:40:49.637Z,364.22
2023-01-11T14:45:57.074Z,364.28
2023-01-11T14:51:04.011Z,363.13
2023-01-11T14:56:11.214Z,363.34
2023-01-11T15:01:18.494Z,362.95
2023-01-11T15:06:25.902Z,363.07
2023-01-11T15:11:33.159Z,362.56
2023-01-11T15:16:40.455Z,362.69
2023-01-11T15:21:47.643Z,362.06
2023-01-11T15:26:54.863Z,362.39
2023-01-11T15:32:02.083Z,361.50
2023-01-11T15:37:09.258Z,361.42
2023-01-11T15:42:16.519Z,360.65
2023-01-11T15:47:23.973Z,358.79
2023-01-11T15:52:30.980Z,359.11
2023-01-11T15:57:38.193Z,357.06
2023-01-11T16:02:45.515Z,355.10
2023-01-11T16:07:52.617Z,353.87
2023-01-11T16:12:59.865Z,353.14
2023-01-11T16:18:07.168Z,353.52
2023-01-11T16:23:14.369Z,352.82
2023-01-11T16:28:21.516Z,352.32
2023-01-11T16:33:28.750Z,353.92
2023-01-11T16:38:35.943Z,354.18
2023-01-11T16:43:43.151Z,353.18
2023-01-11T16:48:50.376Z,351.46
2023-01-11T16:53:57.572Z,352.09
2023-01-11T16:59:04.724Z,352.31
2023-01-11T17:04:15.992Z,352.87
2023-01-11T17:09:19.782Z,350.91
2023-01-11T17:14:26.387Z,350.64
2023-01-11T17:19:33.613Z,350.97
2023-01-11T17:24:40.852Z,350.61
2023-01-11T17:29:47.998Z,349.15
2023-01-11T17:34:55.380Z,347.79
2023-01-11T17:40:02.386Z,346.99
2023-01-11T17:45:09.573Z,344.65
2023-01-11T17:50:16.796Z,345.63
2023-01-11T17:55:23.967Z,345.99
2023-01-11T18:00:31.222Z,344.77
2023-01-11T18:05:38.405Z,344.25
2023-01-11T18:10:45.600Z,344.07
2023-01-11T18:15:52.757Z,341.83
2023-01-11T18:21:00.028Z,341.45
2023-01-11T18:26:07.249Z,341.00
2023-01-11T18:31:14.657Z,340.67
2023-01-11T18:36:22.165Z,340.59
2023-01-11T18:41:29.571Z,340.73
2023-01-11T18:46:38.069Z,340.42
2023-01-11T18:51:45.423Z,339.98
2023-01-11T18:56:55.794Z,340.63
2023-01-11T19:02:16.344Z,339.81
2023-01-11T19:07:11.587Z,338.96
2023-01-11T19:12:19.162Z,338.54
2023-01-11T19:17:26.578Z,337.50
2023-01-11T19:22:34.051Z,336.74
2023-01-11T19:27:41.374Z,336.65
2023-01-11T19:32:48.845Z,335.95
2023-01-11T19:37:56.490Z,335.46
2023-01-11T19:43:03.805Z,334.86
2023-01-11T19:48:11.023Z,332.97
2023-01-11T19:53:18.630Z,332.52
2023-01-11T19:58:26.310Z,333.08
2023-01-11T20:03:33.925Z,332.24
2023-01-11T20:08:41.668Z,332.67
2023-01-11T20:13:49.059Z,333.01
2023-01-11T20:18:56.290Z,333.19
2023-01-11T20:24:03.637Z,332.36
2023-01-11T20:29:10.687Z,332.53
2023-01-11T20:34:18.184Z,333.06
2023-01-11T20:39:25.598Z,333.25
2023-01-11T20:44:32.816Z,333.02
2023-01-11T20:49:40.297Z,331.90
2023-01-11T20:54:47.650Z,330.34
2023-01-11T20:59:54.787Z,331.69
2023-01-11T21:05:02.019Z,329.88
2023-01-11T21:10:09.266Z,329.86
2023-01-11T21:15:16.461Z,329.75
2023-01-11T21:20:23.705Z,330.25
2023-01-11T21:25:30.949Z,330.44
2023-01-11T21:30:38.152Z,329.47
2023-01-11T21:35:45.340Z,329.28
2023-01-11T21:40:52.574Z,330.03
2023-01-11T21:45:59.755Z,329.15
2023-01-11T21:51:06.924Z,328.70
2023-01-11T21:56:14.185Z,328.98
2023-01-11T22:01:21.391Z,328.08
2023-01-11T22:06:28.589Z,328.73
2023-01-11T22:11:35.821Z,328.55
2023-01-11T22:16:43.073Z,328.70
2023-01-11T22:21:50.149Z,328.01
2023-01-11T22:26:57.446Z,326.56
2023-01-11T22:32:04.563Z,325.74
2023-01-11T22:37:11.818Z,325.12
2023-01-11T22:42:19.060Z,325.93
2023-01-11T22:47:26.442Z,324.67
2023-01-11T22:52:33.627Z,323.83
2023-01-11T22:57:40.871Z,323.98
2023-01-11T23:02:48.068Z,324.20
2023-01-11T23:07:55.284Z,323.05
2023-01-11T23:13:02.575Z,323.13
2023-01-11T23:18:09.874Z,323.45
2023-01-11T23:23:17.071Z,322.57
2023-01-11T23:28:24.324Z,323.17
2023-01-11T23:33:31.466Z,321.80
2023-01-11T23:38:38.706Z,321.66
2023-01-11T23:43:45.923Z,321.16
2023-01-11T23:48:53.137Z,321.37
2023-01-11T23:54:00.315Z,323.40
2023-01-11T23:59:07.558Z,322.93
